Flight Track Log - Related Links

Times and Time Zones

All times are in EDT time to prevent confusion due to time zone crossing. See the DAL1666 flight status page for this flight to view local times or setup timezone preferences in your user account.

Time Position Orientation Groundspeed Altitude Reporting Facility
EDT Latitude Longitude Course Direction KTS MPH feet Rate Location/Type
Wed 03:39:58 PM 33.6328 -84.4706 81° East 451 519 2,600  Level Atlanta Center
Wed 03:41:07 PM 33.6000 -84.5500 244° Southwest 238 274 6,800 3,500 Climbing Atlanta TRACON
Wed 03:41:58 PM 33.5489 -84.5897 213° Southwest 269 310 9,600 2,703 Climbing Atlanta Center
Wed 03:42:00 PM 33.6724 -83.9320 118° Southeast  Level FlightAware Approximate
Wed 03:42:58 PM 33.4694 -84.5817 175° South 290 334 11,800  Level Atlanta Center
Wed 03:43:00 PM 33.6065 -83.7814 118° Southeast  Level FlightAware Approximate
Wed 03:43:58 PM 33.4261 -84.4644 114° Southeast 329 379 13,400  Level Atlanta Center
Wed 03:44:00 PM 33.5342 -83.6351 121° Southeast  Level FlightAware Approximate
Wed 03:44:58 PM 33.4517 -84.3128 79° East 387 445 15,600  Level Atlanta Center
Wed 03:45:00 PM 33.5543 -83.4673 81° East  Level FlightAware Approximate
Wed 03:45:58 PM 33.4728 -84.1533 81° East 443 510 17,900  Level Atlanta Center
Wed 03:46:58 PM 33.4958 -83.9939 80° East 480 552 20,300 2,000 Climbing Atlanta Center
Wed 03:47:58 PM 33.5186 -83.8219 81° East 499 574 21,900 1,650 Climbing Atlanta Center
Wed 03:48:58 PM 33.5431 -83.6475 80° East 521 600 23,600 1,600 Climbing Atlanta Center
Wed 03:49:58 PM 33.5653 -83.4703 81° East 535 616 25,100 1,750 Climbing Atlanta Center
Wed 03:50:58 PM 33.5853 -83.2883 82° East 545 627 27,100 1,500 Climbing Atlanta Center
Wed 03:51:58 PM 33.6050 -83.1061 83° East 545 627 28,100 950 Climbing Atlanta Center
Wed 03:52:58 PM 33.6222 -82.9211 84° East 552 635 29,000 450 Climbing Atlanta Center
Wed 03:53:58 PM 33.6414 -82.7564 82° East 559 643 29,000  Level Atlanta Center
Wed 03:55:30 PM 33.6731 -82.4733 82° East 567 652 29,000  Level Jacksonville Center
Wed 03:56:30 PM 33.6931 -82.2858 83° East 572 658 29,000  Level Jacksonville Center
Wed 03:57:30 PM 33.7128 -82.1036 83° East 565 650 29,000  Level Jacksonville Center
Wed 03:58:30 PM 33.7408 -81.9161 80° East 559 643 29,000  Level Jacksonville Center
Wed 03:59:30 PM 33.7769 -81.7408 76° East 554 638 29,000  Level Jacksonville Center
Wed 04:00:30 PM 33.8692 -81.5719 57° Northeast 537 618 29,000  Level Jacksonville Center
Wed 04:01:30 PM 33.9572 -81.4253 54° Northeast 536 617 29,000  Level Jacksonville Center
Wed 04:02:30 PM 34.0472 -81.2811 53° Northeast 536 617 29,000 -350 Level Jacksonville Center
Wed 04:03:30 PM 34.1392 -81.1389 52° Northeast 536 617 28,300 -600 Descending Jacksonville Center
Wed 04:04:30 PM 34.2144 -81.0067 55° Northeast 536 617 27,800 -600 Descending Jacksonville Center
Wed 04:05:30 PM 34.3061 -80.8539 54° Northeast 530 610 27,100 -700 Descending Jacksonville Center
Wed 04:06:30 PM 34.3914 -80.7111 54° Northeast 520 598 26,400 -950 Descending Jacksonville Center
Wed 04:07:30 PM 34.4664 -80.5883 53° Northeast 520 598 25,200 -1,300 Descending Jacksonville Center
Wed 04:08:30 PM 34.5433 -80.4653 53° Northeast 489 563 23,800 -1,100 Descending Jacksonville Center
Wed 04:09:30 PM 34.6200 -80.3344 55° Northeast 472 543 23,000 -306 Descending Jacksonville Center
Wed 04:11:07 PM 34.7408 -80.1261 55° Northeast 472 543 23,000 -38 Level Washington Center
Wed 04:12:07 PM 34.8308 -80.0122 46° Northeast 467 537 22,900 -992 Descending Washington Center
Wed 04:13:08 PM 34.9222 -79.9108 42° Northeast 456 525 21,000 -2,050 Descending Washington Center
Wed 04:14:07 PM 35.0133 -79.8117 42° Northeast 438 504 18,800 -2,118 Descending Washington Center
Wed 04:15:07 PM 35.0894 -79.7269 42° Northeast 424 488 16,800 -1,339 Descending Washington Center
Wed 04:16:08 PM 35.1847 -79.6250 41° Northeast 418 481 16,100 -449 Descending Washington Center
Wed 04:16:54 PM 35.2533 -79.5650 36° Northeast 404 465 16,000  Descending Washington Center
Wed 04:17:06 PM 35.2683 -79.5556 27° Northeast 413 475 16,100  Climbing Washington Center
Wed 04:17:40 PM 35.3281 -79.5178 27° Northeast 396 456 16,000  Descending Washington Center
Wed 04:18:07 PM 35.3731 -79.4792 35° Northeast 395 455 16,100 -636 Climbing Washington Center
Wed 04:18:46 PM 35.4369 -79.4364 29° Northeast 398 458 15,300 -1,000 Descending Washington Center
Wed 04:19:07 PM 35.4606 -79.4222 26° Northeast 395 455 15,100 -1,200 Descending Washington Center
Wed 04:19:41 PM 35.5164 -79.3714 37° Northeast 375 432 14,200 -1,279 Descending Washington Center
Wed 04:20:08 PM 35.5406 -79.3292 55° Northeast 367 422 13,800 -1,527 Descending Washington Center
Wed 04:20:36 PM 35.5714 -79.2769 54° Northeast 355 409 12,800 -1,966 Descending Washington Center
Wed 04:21:06 PM 35.6000 -79.2297 53° Northeast 361 415 11,900 -1,778 Descending Washington Center
Wed 04:21:30 PM 35.6217 -79.2000 48° Northeast 350 403 11,200 -1,475 Descending Washington Center
Wed 04:22:07 PM 35.6528 -79.1425 56° Northeast 354 407 10,400 -1,703 Descending Washington Center
Wed 04:22:44 PM 35.6900 -79.0803 54° Northeast 341 392 9,100 -1,869 Descending Washington Center
Wed 04:23:08 PM 35.7075 -79.0506 54° Northeast 344 396 8,500 -1,200 Descending Washington Center
Wed 04:23:44 PM 35.7428 -78.9906 54° Northeast 329 379 7,900 -621 Descending Washington Center
Wed 04:24:06 PM 35.7603 -78.9631 52° Northeast 333 383 7,900  Level Washington Center
Wed 04:24:51 PM 35.7994 -78.9033 51° Northeast 272 313 7,900 98 Level Washington Center
Wed 04:25:07 PM 35.8122 -78.8961 25° Northeast 300 345 8,000 122 Climbing Washington Center
Wed 04:25:40 PM 35.8561 -78.8903 North 250 288 8,000 -100 Level Washington Center
Wed 04:26:07 PM 35.8833 -78.8811 15° North 251 289 7,900 -885 Descending Washington Center
Wed 04:26:41 PM 35.9258 -78.8625 20° North 265 305 7,100 -1,404 Descending Washington Center
Wed 04:27:41 PM 35.9833 -78.8108 36° Northeast 266 306 5,700 -1,041 Descending Washington Center
Wed 04:28:42 PM 36.0353 -78.7461 45° Northeast 259 298 5,000 -843 Descending Washington Center
Wed 04:29:42 PM 36.0456 -78.6722 80° East 254 292 4,000 -1,039 Descending Washington Center
Wed 04:30:49 PM 35.9961 -78.6497 160° South 152 175 2,800 -844 Descending Washington Center
Wed 04:31:50 PM 35.9658 -78.6869 225° Southwest 138 159 2,200 -563 Descending Washington Center
Wed 04:32:57 PM 35.9378 -78.7269 229° Southwest 139 160 1,600 -590 Descending Washington Center
Wed 04:33:52 PM 35.9161 -78.7544 226° Southwest 129 148 1,000 -655 Descending Washington Center

Login

Don't have an account? Register now (free) for customized features, flight alerts, and more!